メインページ
METAR-TAF:

METAR-TAF

空港 :

エドモントン, アルバータ州, カナダ

エドモントン国際空港

緯度: 53-18N, 経度: 113-35W, 海抜: 715m

現時点の気象観測

当レポートは1時間34分前の21:00(UTC)に作成
の風 8kt
気温 26°C
湿度 45%
気圧 1016 hPa
視程: 24.1km
晴天

METAR: CYEG 262100Z 18008KT 15SM SKC 26/13 A3000 RMK SLP163 DENSITY ALT 4200FT

時間: 16:34 (22:34 UTC)

予報

当レポートは1時間56分前の20:38(UTC)に作成
予報は26日の 21時(UTC)から 27日の 18時(UTC)まで有効
の風 8kt
視程: 10km
晴天
27日の 02時(UTC)から 27日の 04時(UTC)まで徐々に
東/南東の風 8kt
27日の 07時(UTC)から 27日の 09時(UTC)まで徐々に
の風 8kt
27日の 1600時(UTC)から
北西の風 10kt
視程: 10km
高度12000ftの雲は散在している
高度20000ftの千切れ雲あり

TAF: CYEG 262038Z 2621/2718 18008KT P6SM SKC BECMG 2702/2704 12008KT BECMG 2707/2709 18008KT FM271600 32010KT P6SM SCT120 BKN200 RMK NXT FCST BY 270000Z

4,000以上の空港の気象観測と天気予報(METAR報とTAF報)

利用可能な観測所は地図上に黄色い丸と赤い丸で示す。

丸の上にカーソルを重ねると観測所名を参照できる。

次にクリックすると気象観測と天気予報を参照できる。

マップの切り替え:黒色「×」印の緑ボタンをクリックして拡大、「-」印の緑ボタンをクリックして縮小、緑色の三角印をクリックして隣りの地図に切り替え


METAR-TAF: